createdAt,value
2019-05-17T00:00:29.290Z,97.70
2019-05-17T00:05:34.152Z,97.70
2019-05-17T00:10:41.319Z,97.60
2019-05-17T00:15:47.400Z,97.40
2019-05-17T00:20:51.914Z,97.60
2019-05-17T00:25:56.390Z,97.60
2019-05-17T00:31:03.242Z,97.40
2019-05-17T00:36:11.452Z,97.50
2019-05-17T00:41:17.626Z,97.40
2019-05-17T00:46:22.211Z,97.30
2019-05-17T00:51:27.363Z,97.40
2019-05-17T00:56:32.934Z,97.30
2019-05-17T01:01:39.300Z,97.40
2019-05-17T01:06:50.457Z,97.60
2019-05-17T01:11:56.549Z,97.60
2019-05-17T01:17:16.579Z,97.60
2019-05-17T01:22:09.878Z,97.80
2019-05-17T01:27:14.126Z,97.40
2019-05-17T01:32:21.621Z,97.50
2019-05-17T01:37:27.749Z,97.60
2019-05-17T01:42:37.418Z,97.20
2019-05-17T01:47:43.375Z,97.40
2019-05-17T01:52:48.219Z,97.50
2019-05-17T01:57:56.423Z,97.50
2019-05-17T02:03:03.478Z,97.50
2019-05-17T02:08:08.021Z,97.50
2019-05-17T02:13:11.060Z,97.60
2019-05-17T02:18:21.149Z,97.60
2019-05-17T02:23:27.093Z,97.50
2019-05-17T02:28:32.188Z,97.60
2019-05-17T02:33:36.587Z,97.60
2019-05-17T02:38:43.572Z,97.40
2019-05-17T02:43:53.162Z,97.30
2019-05-17T02:48:54.884Z,97.40
2019-05-17T02:54:13.309Z,97.40
2019-05-17T02:59:18.299Z,97.40
2019-05-17T03:04:23.674Z,97.50
2019-05-17T03:09:29.171Z,97.60
2019-05-17T03:14:33.560Z,97.80
2019-05-17T03:19:37.876Z,97.70
2019-05-17T03:24:44.122Z,97.80
2019-05-17T03:29:48.636Z,97.70
2019-05-17T03:34:56.145Z,97.70
2019-05-17T03:40:23.505Z,97.50
2019-05-17T03:45:13.764Z,97.40
2019-05-17T03:50:22.732Z,97.40
2019-05-17T03:55:33.135Z,97.80
2019-05-17T04:00:38.014Z,97.90
2019-05-17T04:05:43.121Z,97.80
2019-05-17T04:10:47.452Z,97.80
2019-05-17T04:15:53.042Z,97.90
2019-05-17T04:20:57.789Z,97.90
2019-05-17T04:26:04.159Z,97.70
2019-05-17T04:31:08.082Z,97.70
2019-05-17T04:36:13.273Z,97.70
2019-05-17T04:41:38.783Z,97.60
2019-05-17T04:46:25.023Z,97.60
2019-05-17T04:51:32.011Z,97.40
2019-05-17T04:56:36.941Z,97.30
2019-05-17T05:01:43.535Z,97.50
2019-05-17T05:06:52.407Z,97.30
2019-05-17T05:12:02.727Z,97.10
2019-05-17T05:17:03.137Z,97.00
2019-05-17T05:22:07.577Z,97.00
2019-05-17T05:27:16.558Z,97.00
2019-05-17T05:32:22.069Z,96.90
2019-05-17T05:37:28.058Z,96.80
2019-05-17T05:42:32.453Z,96.60
2019-05-17T05:47:36.539Z,96.20
2019-05-17T05:52:42.199Z,96.20
2019-05-17T05:57:47.894Z,96.40
2019-05-17T06:02:53.699Z,95.60
2019-05-17T06:07:59.514Z,95.70
2019-05-17T06:13:05.817Z,95.50
2019-05-17T06:18:12.198Z,95.10
2019-05-17T06:23:17.985Z,94.80
2019-05-17T06:28:22.412Z,94.00
2019-05-17T06:33:30.896Z,93.90
2019-05-17T06:38:37.531Z,93.10
2019-05-17T06:43:45.196Z,92.90
2019-05-17T06:48:49.798Z,93.40
2019-05-17T06:53:56.639Z,93.70
2019-05-17T06:59:04.501Z,93.40
2019-05-17T07:04:10.413Z,93.90
2019-05-17T07:09:15.651Z,93.50
2019-05-17T07:14:21.724Z,93.30
2019-05-17T07:19:25.844Z,93.30
2019-05-17T07:24:44.334Z,93.40
2019-05-17T07:29:49.767Z,93.00
2019-05-17T07:34:54.165Z,93.00
2019-05-17T07:40:04.508Z,93.60
2019-05-17T07:45:05.567Z,92.90
2019-05-17T07:50:11.169Z,93.20
2019-05-17T07:55:16.255Z,92.60
2019-05-17T08:00:20.485Z,92.70
2019-05-17T08:05:24.884Z,92.90
2019-05-17T08:10:31.391Z,92.90
2019-05-17T08:15:35.586Z,92.90
2019-05-17T08:20:40.552Z,93.10
2019-05-17T08:25:52.610Z,93.30
2019-05-17T08:30:54.964Z,92.10
2019-05-17T08:35:59.815Z,92.40
2019-05-17T08:41:07.393Z,91.00
2019-05-17T08:46:12.752Z,91.10
2019-05-17T08:51:24.272Z,91.70
2019-05-17T08:56:31.578Z,91.80
2019-05-17T09:01:38.546Z,91.90
2019-05-17T09:06:44.066Z,91.60
2019-05-17T09:11:50.083Z,91.70
2019-05-17T09:16:56.129Z,90.70
2019-05-17T09:22:02.298Z,90.70
2019-05-17T09:27:10.149Z,91.00
2019-05-17T09:32:14.764Z,90.30
2019-05-17T09:37:22.216Z,90.60
2019-05-17T09:42:24.747Z,90.70
2019-05-17T09:47:30.083Z,90.60
2019-05-17T09:52:34.494Z,90.30
2019-05-17T09:57:41.176Z,90.40
2019-05-17T10:02:46.482Z,90.10
2019-05-17T10:07:51.070Z,90.40
2019-05-17T10:12:55.434Z,90.40
2019-05-17T10:18:00.989Z,87.80
2019-05-17T10:23:05.360Z,88.60
2019-05-17T10:28:10.135Z,87.80
2019-05-17T10:33:14.546Z,87.40
2019-05-17T10:38:19.479Z,88.50
2019-05-17T10:43:25.279Z,87.50
2019-05-17T10:48:30.284Z,88.90
2019-05-17T10:53:37.058Z,87.80
2019-05-17T10:58:42.702Z,87.80
2019-05-17T11:03:50.107Z,83.30
2019-05-17T11:08:53.611Z,80.80
2019-05-17T11:13:59.176Z,78.70
2019-05-17T11:19:03.602Z,73.40
2019-05-17T11:24:18.082Z,76.30
2019-05-17T11:29:21.234Z,77.60
2019-05-17T11:34:25.736Z,72.50
2019-05-17T11:39:29.017Z,73.90
2019-05-17T11:44:33.137Z,73.30
2019-05-17T11:49:38.439Z,74.30
2019-05-17T11:54:43.216Z,69.50
2019-05-17T11:59:47.904Z,69.10
2019-05-17T12:04:52.277Z,72.30
2019-05-17T12:09:56.303Z,71.50
2019-05-17T12:15:00.406Z,72.90
2019-05-17T12:20:05.140Z,71.70
2019-05-17T12:25:11.307Z,73.40
2019-05-17T12:30:15.699Z,75.10
2019-05-17T12:35:26.349Z,71.80
2019-05-17T12:40:31.492Z,73.00
2019-05-17T12:45:35.897Z,71.50
2019-05-17T12:50:41.043Z,72.80
2019-05-17T12:55:45.098Z,73.60
2019-05-17T13:00:49.556Z,69.80
2019-05-17T13:05:53.640Z,71.00
2019-05-17T13:11:00.634Z,73.90
2019-05-17T13:16:17.604Z,72.20
2019-05-17T13:21:10.482Z,70.90
2019-05-17T13:26:14.477Z,70.90
2019-05-17T13:31:18.683Z,73.50
2019-05-17T13:36:22.800Z,70.30
2019-05-17T13:41:26.957Z,68.90
2019-05-17T13:46:33.555Z,70.80
2019-05-17T13:51:37.102Z,68.40
2019-05-17T13:56:41.175Z,69.30
2019-05-17T14:01:45.296Z,70.60
2019-05-17T14:06:51.487Z,69.50
2019-05-17T14:11:56.279Z,69.70
2019-05-17T14:17:00.471Z,70.60
2019-05-17T14:22:10.587Z,71.50
2019-05-17T14:27:15.595Z,70.30
2019-05-17T14:32:22.370Z,70.90
2019-05-17T14:37:29.593Z,71.70
2019-05-17T14:42:39.777Z,70.90
2019-05-17T14:47:54.661Z,71.30
2019-05-17T14:53:00.025Z,69.20
2019-05-17T14:58:07.319Z,68.40
2019-05-17T15:03:17.576Z,69.50
2019-05-17T15:08:22.349Z,70.20
2019-05-17T15:13:29.731Z,69.80
2019-05-17T15:18:39.951Z,70.10
2019-05-17T15:24:12.831Z,68.60
2019-05-17T15:30:06.121Z,67.80
2019-05-17T15:35:20.230Z,68.60
2019-05-17T15:40:33.472Z,68.90
2019-05-17T15:45:49.855Z,68.00
2019-05-17T15:50:54.066Z,68.00
2019-05-17T15:56:04.978Z,68.70
2019-05-17T16:01:09.578Z,68.70
2019-05-17T16:06:23.719Z,69.40
2019-05-17T16:11:28.896Z,69.50
2019-05-17T16:16:36.707Z,70.30
2019-05-17T16:21:57.781Z,71.00
2019-05-17T16:33:43.267Z,72.30
2019-05-17T16:38:47.601Z,72.40
2019-05-17T16:44:18.737Z,72.40
2019-05-17T16:49:28.315Z,73.00
2019-05-17T16:54:33.767Z,73.10
2019-05-17T16:59:40.196Z,73.10
2019-05-17T17:04:51.624Z,71.80
2019-05-17T17:10:00.750Z,71.60
2019-05-17T17:15:38.397Z,72.60
2019-05-17T17:20:47.861Z,73.90
2019-05-17T17:25:53.845Z,72.40
2019-05-17T17:31:17.803Z,72.70
2019-05-17T17:36:59.327Z,74.30
2019-05-17T17:48:53.755Z,73.70
2019-05-17T17:54:28.689Z,74.80
2019-05-17T17:59:37.101Z,74.90
2019-05-17T18:05:10.762Z,74.50
2019-05-17T18:10:27.793Z,75.20
2019-05-17T18:22:13.397Z,76.00
2019-05-17T18:27:19.329Z,76.70
2019-05-17T18:32:32.871Z,77.20
2019-05-17T18:38:00.553Z,77.10
2019-05-17T18:43:12.083Z,77.60
2019-05-17T18:48:33.406Z,77.40
2019-05-17T18:53:43.807Z,78.10
2019-05-17T18:58:48.408Z,79.20
2019-05-17T19:03:52.720Z,79.90
2019-05-17T19:08:57.395Z,80.80
2019-05-17T19:14:00.656Z,80.90
2019-05-17T19:19:05.094Z,81.90
2019-05-17T19:24:09.487Z,82.30
2019-05-17T19:29:20.262Z,82.30
2019-05-17T19:34:29.067Z,82.30
2019-05-17T19:39:33.512Z,83.10
2019-05-17T19:44:37.579Z,82.40
2019-05-17T19:49:41.727Z,82.20
2019-05-17T19:54:45.926Z,82.60
2019-05-17T19:59:49.970Z,82.30
2019-05-17T20:04:54.682Z,82.10
2019-05-17T20:09:57.814Z,82.60
2019-05-17T20:15:15.923Z,82.40
2019-05-17T20:20:08.937Z,84.00
2019-05-17T20:25:13.452Z,83.80
2019-05-17T20:30:17.619Z,84.00
2019-05-17T20:35:21.997Z,83.70
2019-05-17T20:40:26.077Z,84.50
2019-05-17T20:45:33.767Z,83.70
2019-05-17T20:50:37.838Z,84.20
2019-05-17T20:55:43.295Z,84.10
2019-05-17T21:00:58.816Z,84.00
2019-05-17T21:06:03.165Z,83.90
2019-05-17T21:11:08.148Z,83.40
2019-05-17T21:16:12.239Z,85.30
2019-05-17T21:21:16.277Z,84.50
2019-05-17T21:26:21.020Z,84.00
2019-05-17T21:31:25.572Z,84.50
2019-05-17T21:36:29.558Z,85.10
2019-05-17T21:41:33.658Z,84.90
2019-05-17T21:46:37.675Z,84.50
2019-05-17T21:51:41.750Z,85.30
2019-05-17T21:56:46.055Z,85.70
2019-05-17T22:01:54.337Z,86.00
2019-05-17T22:06:58.479Z,85.90
2019-05-17T22:12:21.839Z,86.20
2019-05-17T22:17:25.956Z,87.30
2019-05-17T22:22:30.346Z,85.70
2019-05-17T22:27:35.522Z,86.10
2019-05-17T22:32:40.555Z,87.20
2019-05-17T22:37:44.610Z,85.90
2019-05-17T22:42:57.426Z,88.60
2019-05-17T22:48:10.484Z,89.40
2019-05-17T22:53:14.579Z,88.30
2019-05-17T22:58:19.299Z,87.10
2019-05-17T23:03:22.916Z,89.10
2019-05-17T23:08:26.940Z,87.90
2019-05-17T23:13:32.384Z,88.90
2019-05-17T23:18:36.788Z,91.90
2019-05-17T23:23:41.215Z,90.20
2019-05-17T23:28:45.340Z,91.20
2019-05-17T23:33:49.615Z,92.70
2019-05-17T23:38:53.764Z,91.70
2019-05-17T23:44:00.745Z,90.50
2019-05-17T23:49:05.328Z,90.60
2019-05-17T23:54:08.458Z,90.70
2019-05-17T23:59:13.679Z,91.60
